createdAt,value
2023-05-16T00:01:52.573Z,95086.97
2023-05-16T00:04:54.532Z,95080.44
2023-05-16T00:07:56.286Z,95067.31
2023-05-16T00:11:00.452Z,95064.25
2023-05-16T00:14:02.961Z,95058.50
2023-05-16T00:17:05.494Z,95062.72
2023-05-16T00:20:08.610Z,95066.16
2023-05-16T00:23:10.304Z,95064.25
2023-05-16T00:26:15.330Z,95055.38
2023-05-16T00:29:17.045Z,95066.56
2023-05-16T00:32:21.737Z,95063.09
2023-05-16T00:35:23.931Z,95054.63
2023-05-16T00:38:26.673Z,95049.59
2023-05-16T00:41:30.714Z,95049.63
2023-05-16T00:44:32.691Z,95040.38
2023-05-16T00:47:35.946Z,95045.00
2023-05-16T00:50:38.132Z,95049.63
2023-05-16T00:53:39.906Z,95051.53
2023-05-16T00:56:45.652Z,95050.00
2023-05-16T00:59:48.715Z,95051.16
2023-05-16T01:02:52.149Z,95054.59
2023-05-16T01:05:55.391Z,95051.16
2023-05-16T01:08:57.820Z,95050.78
2023-05-16T01:12:09.183Z,95048.06
2023-05-16T01:15:15.644Z,95051.16
2023-05-16T01:18:28.298Z,95035.72
2023-05-16T01:21:42.336Z,95048.84
2023-05-16T01:24:55.488Z,95048.06
2023-05-16T01:27:59.619Z,95041.91
2023-05-16T01:31:01.550Z,95034.59
2023-05-16T01:34:03.510Z,95033.81
2023-05-16T01:37:15.252Z,95039.22
2023-05-16T01:40:26.874Z,95032.69
2023-05-16T01:43:35.396Z,95032.28
2023-05-16T01:46:40.585Z,95036.13
2023-05-16T01:49:49.952Z,95032.28
2023-05-16T01:52:57.736Z,95028.03
2023-05-16T01:56:02.251Z,95031.91
2023-05-16T01:59:09.175Z,95034.22
2023-05-16T02:02:11.098Z,95036.13
2023-05-16T02:05:13.174Z,95037.31
2023-05-16T02:08:14.869Z,95035.75
2023-05-16T02:11:19.575Z,95039.63
2023-05-16T02:14:23.118Z,95041.91
2023-05-16T02:17:25.045Z,95046.56
2023-05-16T02:20:27.933Z,95055.78
2023-05-16T02:23:29.657Z,95053.47
2023-05-16T02:26:31.583Z,95050.00
2023-05-16T02:29:37.529Z,95043.84
2023-05-16T02:32:40.481Z,95041.91
2023-05-16T02:35:42.294Z,95035.38
2023-05-16T02:38:44.738Z,95033.03
2023-05-16T02:41:46.693Z,95033.06
2023-05-16T02:44:49.995Z,95022.25
2023-05-16T02:47:51.791Z,95029.53
2023-05-16T02:50:53.780Z,95023.75
2023-05-16T02:53:56.043Z,95030.25
2023-05-16T02:56:59.125Z,95021.75
2023-05-16T03:00:02.375Z,95014.47
2023-05-16T03:03:04.184Z,95015.59
2023-05-16T03:06:06.171Z,95015.63
2023-05-16T03:09:10.254Z,95002.22
2023-05-16T03:12:11.964Z,95009.53
2023-05-16T03:15:15.234Z,95018.78
2023-05-16T03:18:16.982Z,95018.00
2023-05-16T03:21:18.940Z,95018.41
2023-05-16T03:24:20.952Z,95013.38
2023-05-16T03:27:22.909Z,94999.53
2023-05-16T03:30:27.536Z,95006.06
2023-05-16T03:33:30.460Z,94998.75
2023-05-16T03:36:32.147Z,94990.66
2023-05-16T03:39:33.863Z,94988.72
2023-05-16T03:42:35.540Z,94992.22
2023-05-16T03:45:40.316Z,94983.66
2023-05-16T03:48:42.019Z,94986.38
2023-05-16T03:51:43.994Z,94997.91
2023-05-16T03:54:45.957Z,94997.16
2023-05-16T03:57:47.909Z,94996.44
2023-05-16T04:00:53.277Z,95002.63
2023-05-16T04:03:55.007Z,95001.09
2023-05-16T04:06:59.320Z,94996.44
2023-05-16T04:10:01.741Z,94996.47
2023-05-16T04:13:03.571Z,95006.50
2023-05-16T04:16:09.237Z,95007.63
2023-05-16T04:19:10.995Z,95013.81
2023-05-16T04:22:13.573Z,94998.38
2023-05-16T04:25:17.623Z,94996.09
2023-05-16T04:28:19.591Z,94988.75
2023-05-16T04:31:23.682Z,94991.84
2023-05-16T04:34:25.553Z,94989.16
2023-05-16T04:37:27.772Z,94992.63
2023-05-16T04:40:30.475Z,94986.06
2023-05-16T04:43:32.193Z,94985.31
2023-05-16T04:46:35.668Z,94981.81
2023-05-16T04:49:37.378Z,94979.50
2023-05-16T04:52:39.120Z,94980.28
2023-05-16T04:55:41.533Z,94981.06
2023-05-16T04:58:43.710Z,94974.13
2023-05-16T05:01:47.029Z,94966.44
2023-05-16T05:04:48.802Z,94971.41
2023-05-16T05:07:53.256Z,94977.59
2023-05-16T05:10:56.351Z,94969.09
2023-05-16T05:14:00.702Z,94968.34
2023-05-16T05:17:04.522Z,94959.88
2023-05-16T05:20:08.080Z,94967.16
2023-05-16T05:23:10.533Z,94972.19
2023-05-16T05:26:13.550Z,94977.94
2023-05-16T05:29:15.287Z,94972.16
2023-05-16T05:32:23.219Z,94980.63
2023-05-16T05:35:25.532Z,94992.16
2023-05-16T05:38:28.016Z,94990.59
2023-05-16T05:41:29.981Z,94998.72
2023-05-16T05:44:33.804Z,95006.81
2023-05-16T05:47:37.474Z,95014.50
2023-05-16T05:50:40.250Z,95012.91
2023-05-16T05:53:43.498Z,95009.41
2023-05-16T05:56:45.691Z,95003.28
2023-05-16T05:59:47.620Z,95007.16
2023-05-16T06:02:50.934Z,95001.34
2023-05-16T06:05:53.101Z,95004.03
2023-05-16T06:08:55.774Z,94997.88
2023-05-16T06:11:57.773Z,95008.25
2023-05-16T06:15:01.338Z,95006.38
2023-05-16T06:18:06.151Z,95001.31
2023-05-16T06:21:08.177Z,94999.75
2023-05-16T06:24:10.248Z,95001.66
2023-05-16T06:27:12.250Z,95014.00
2023-05-16T06:30:14.635Z,95006.63
2023-05-16T06:33:17.727Z,95008.16
2023-05-16T06:36:19.660Z,94998.13
2023-05-16T06:39:22.220Z,94998.84
2023-05-16T06:42:27.800Z,94998.84
2023-05-16T06:45:30.332Z,95009.22
2023-05-16T06:48:33.634Z,95008.44
2023-05-16T06:51:35.505Z,95014.22
2023-05-16T06:54:40.011Z,95013.03
2023-05-16T06:57:42.523Z,95020.34
2023-05-16T07:00:44.236Z,95030.75
2023-05-16T07:03:47.854Z,95030.81
2023-05-16T07:06:49.677Z,95021.09
2023-05-16T07:09:52.169Z,95022.56
2023-05-16T07:12:54.225Z,95021.09
2023-05-16T07:15:55.966Z,95023.03
2023-05-16T07:19:00.412Z,95022.63
2023-05-16T07:22:02.823Z,95031.50
2023-05-16T07:25:05.504Z,95027.13
2023-05-16T07:28:08.001Z,95020.16
2023-05-16T07:31:10.303Z,95017.00
2023-05-16T07:34:14.170Z,95017.41
2023-05-16T07:37:16.741Z,95022.44
2023-05-16T07:40:19.020Z,95020.91
2023-05-16T07:43:21.492Z,95015.09
2023-05-16T07:46:24.448Z,95004.28
2023-05-16T07:49:27.596Z,95002.72
2023-05-16T07:52:30.111Z,95008.06
2023-05-16T07:55:32.424Z,94996.41
2023-05-16T07:58:34.592Z,95007.47
2023-05-16T08:01:37.225Z,95012.50
2023-05-16T08:04:40.369Z,95015.84
2023-05-16T08:07:42.422Z,95018.09
2023-05-16T08:10:44.476Z,95026.41
2023-05-16T08:13:46.363Z,95035.84
2023-05-16T08:16:48.169Z,95030.81
2023-05-16T08:19:51.762Z,95023.88
2023-05-16T08:22:54.150Z,95023.84
2023-05-16T08:25:56.173Z,95020.31
2023-05-16T08:28:58.162Z,95017.59
2023-05-16T08:32:00.234Z,95022.97
2023-05-16T08:35:03.526Z,95015.97
2023-05-16T08:38:05.383Z,95015.97
2023-05-16T08:41:07.779Z,95015.94
2023-05-16T08:44:12.204Z,95003.50
2023-05-16T08:47:18.995Z,95011.19
2023-05-16T08:50:23.598Z,95002.25
2023-05-16T08:53:34.655Z,94999.50
2023-05-16T08:56:38.711Z,95010.69
2023-05-16T08:59:41.054Z,95009.19
2023-05-16T09:02:46.220Z,95008.81
2023-05-16T09:05:49.713Z,95000.72
2023-05-16T09:08:54.129Z,94998.25
2023-05-16T09:11:56.381Z,94994.06
2023-05-16T09:14:58.574Z,94991.66
2023-05-16T09:18:01.561Z,94986.22
2023-05-16T09:21:05.822Z,94976.84
2023-05-16T09:24:11.964Z,94975.75
2023-05-16T09:27:16.173Z,94971.91
2023-05-16T09:30:30.270Z,94964.91
2023-05-16T09:33:33.488Z,94963.63
2023-05-16T09:36:37.103Z,94963.69
2023-05-16T09:39:45.763Z,94961.63
2023-05-16T09:42:47.640Z,94965.84
2023-05-16T09:45:49.875Z,94969.66
2023-05-16T09:48:52.093Z,94969.91
2023-05-16T09:51:55.757Z,94981.50
2023-05-16T09:54:59.431Z,94979.59
2023-05-16T09:58:01.371Z,94983.38
2023-05-16T10:01:03.720Z,94989.63
2023-05-16T10:04:06.039Z,94991.97
2023-05-16T10:07:10.741Z,94982.72
2023-05-16T10:10:14.596Z,94991.34
2023-05-16T10:13:18.202Z,94993.34
2023-05-16T10:16:22.026Z,95001.03
2023-05-16T10:19:26.699Z,95001.34
2023-05-16T10:22:32.871Z,94999.31
2023-05-16T10:25:39.248Z,95005.16
2023-05-16T10:28:41.279Z,95001.59
2023-05-16T10:31:43.759Z,94993.88
2023-05-16T10:34:46.581Z,94993.41
2023-05-16T10:37:51.502Z,94992.28
2023-05-16T10:40:57.635Z,94985.19
2023-05-16T10:44:00.013Z,94973.59
2023-05-16T10:47:04.214Z,94971.00
2023-05-16T10:50:07.893Z,94978.66
2023-05-16T10:53:22.318Z,94987.88
2023-05-16T10:56:27.575Z,94994.00
2023-05-16T10:59:40.719Z,94990.38
2023-05-16T11:02:43.547Z,94992.28
2023-05-16T11:05:52.430Z,94988.66
2023-05-16T11:09:07.086Z,94998.00
2023-05-16T11:12:09.905Z,95007.13
2023-05-16T11:15:24.219Z,95003.00
2023-05-16T11:18:28.516Z,95003.00
2023-05-16T11:22:03.477Z,94996.78
2023-05-16T11:25:09.124Z,95003.25
2023-05-16T11:28:13.105Z,95006.31
2023-05-16T11:31:15.232Z,94997.31
2023-05-16T11:34:17.343Z,94996.28
2023-05-16T11:37:22.514Z,95003.38
2023-05-16T11:40:27.070Z,95002.16
2023-05-16T11:43:28.948Z,95004.03
2023-05-16T11:46:31.850Z,94998.69
2023-05-16T11:49:34.934Z,95008.06
2023-05-16T11:52:37.322Z,94998.25
2023-05-16T11:55:42.605Z,95004.66
2023-05-16T11:58:45.755Z,95002.44
2023-05-16T12:01:48.672Z,94999.31
2023-05-16T12:04:50.785Z,94989.16
2023-05-16T12:07:53.499Z,95003.63
2023-05-16T12:10:57.068Z,94992.56
2023-05-16T12:13:59.144Z,94996.03
2023-05-16T12:17:01.165Z,94995.13
2023-05-16T12:20:04.921Z,94995.44
2023-05-16T12:23:11.804Z,95003.63
2023-05-16T12:26:15.140Z,95017.19
2023-05-16T12:29:17.145Z,95014.38
2023-05-16T12:32:21.978Z,95023.91
2023-05-16T12:35:25.237Z,95021.13
2023-05-16T12:38:29.480Z,95015.81
2023-05-16T12:41:32.949Z,95006.72
2023-05-16T12:44:35.623Z,95003.25
2023-05-16T12:47:38.829Z,95009.16
2023-05-16T12:50:41.859Z,94998.69
2023-05-16T12:53:49.145Z,95005.69
2023-05-16T12:56:59.196Z,95003.41
2023-05-16T13:00:00.954Z,95001.50
2023-05-16T13:03:02.834Z,95002.72
2023-05-16T13:06:06.104Z,95000.06
2023-05-16T13:09:08.475Z,95005.91
2023-05-16T13:12:13.873Z,95000.69
2023-05-16T13:15:17.833Z,95008.31
2023-05-16T13:18:20.372Z,95013.69
2023-05-16T13:21:24.653Z,95017.09
2023-05-16T13:24:26.425Z,95010.03
2023-05-16T13:27:29.882Z,95010.53
2023-05-16T13:30:31.680Z,95003.94
2023-05-16T13:33:33.393Z,95004.63
2023-05-16T13:36:52.456Z,95005.84
2023-05-16T13:39:55.581Z,95007.59
2023-05-16T13:43:00.500Z,95001.63
2023-05-16T13:46:02.325Z,95001.19
2023-05-16T13:49:04.850Z,95004.44
2023-05-16T13:52:07.312Z,95000.13
2023-05-16T13:55:09.851Z,94996.44
2023-05-16T13:58:16.140Z,94998.53
2023-05-16T14:01:18.877Z,95004.22
2023-05-16T14:04:23.318Z,95002.19
2023-05-16T14:07:25.934Z,95012.59
2023-05-16T14:10:27.757Z,95009.63
2023-05-16T14:13:31.179Z,95007.81
2023-05-16T14:16:32.986Z,94998.53
2023-05-16T14:19:38.073Z,94998.22
2023-05-16T14:22:39.942Z,95003.56
2023-05-16T14:25:41.701Z,95001.97
2023-05-16T14:28:44.978Z,94990.38
2023-05-16T14:31:51.322Z,94988.63
2023-05-16T14:34:55.392Z,94991.03
2023-05-16T14:37:57.331Z,94992.41
2023-05-16T14:40:59.189Z,94995.94
2023-05-16T14:44:02.816Z,94994.75
2023-05-16T14:47:06.023Z,95001.78
2023-05-16T14:50:10.172Z,95000.19
2023-05-16T14:53:12.361Z,94999.44
2023-05-16T14:56:16.888Z,94994.38
2023-05-16T14:59:20.352Z,94995.97
2023-05-16T15:02:23.326Z,95003.69
2023-05-16T15:05:25.584Z,95002.94
2023-05-16T15:08:27.708Z,95005.66
2023-05-16T15:11:30.358Z,95004.56
2023-05-16T15:14:35.693Z,94997.03
2023-05-16T15:17:40.440Z,94996.22
2023-05-16T15:20:44.873Z,94998.09
2023-05-16T15:23:47.501Z,95000.75
2023-05-16T15:26:51.023Z,95004.13
2023-05-16T15:29:55.857Z,94997.56
2023-05-16T15:32:59.369Z,95002.13
2023-05-16T15:36:01.961Z,95001.31
2023-05-16T15:39:06.211Z,95014.31
2023-05-16T15:42:11.290Z,95015.94
2023-05-16T15:45:17.928Z,95014.41
2023-05-16T15:48:20.784Z,95025.56
2023-05-16T15:51:23.401Z,95028.19
2023-05-16T15:54:25.959Z,95037.13
2023-05-16T15:57:28.488Z,95036.34
2023-05-16T16:00:32.425Z,95041.63
2023-05-16T16:03:35.688Z,95050.47
2023-05-16T16:06:38.314Z,95057.41
2023-05-16T16:09:42.400Z,95047.75
2023-05-16T16:12:45.628Z,95051.63
2023-05-16T16:15:50.766Z,95046.22
2023-05-16T16:18:54.459Z,95028.78
2023-05-16T16:21:57.030Z,95031.63
2023-05-16T16:24:59.591Z,95038.66
2023-05-16T16:28:02.151Z,95035.09
2023-05-16T16:31:06.370Z,95037.44
2023-05-16T16:34:11.876Z,95037.47
2023-05-16T16:37:19.685Z,95052.47
2023-05-16T16:40:27.388Z,95045.81
2023-05-16T16:43:30.726Z,95047.84
2023-05-16T16:46:36.428Z,95047.41
2023-05-16T16:49:39.267Z,95044.28
2023-05-16T16:52:42.571Z,95044.94
2023-05-16T16:55:45.895Z,95044.66
2023-05-16T16:58:48.550Z,95050.78
2023-05-16T17:01:53.534Z,95059.22
2023-05-16T17:04:58.708Z,95061.13
2023-05-16T17:08:02.267Z,95068.34
2023-05-16T17:11:06.945Z,95080.22
2023-05-16T17:14:09.734Z,95097.16
2023-05-16T17:17:13.794Z,95083.22
2023-05-16T17:20:17.261Z,95091.72
2023-05-16T17:23:19.839Z,95092.88
2023-05-16T17:26:23.126Z,95090.19
2023-05-16T17:29:26.301Z,95092.13
2023-05-16T17:32:30.776Z,95097.59
2023-05-16T17:35:33.389Z,95096.75
2023-05-16T17:38:36.224Z,95100.22
2023-05-16T17:41:39.819Z,95093.25
2023-05-16T17:44:43.448Z,95106.84
2023-05-16T17:47:48.692Z,95106.09
2023-05-16T17:50:53.425Z,95108.78
2023-05-16T17:53:56.036Z,95119.25
2023-05-16T17:57:00.238Z,95112.28
2023-05-16T18:00:02.904Z,95111.50
2023-05-16T18:03:09.047Z,95115.38
2023-05-16T18:06:12.694Z,95120.78
2023-05-16T18:09:17.780Z,95110.44
2023-05-16T18:12:20.681Z,95115.19
2023-05-16T18:15:23.251Z,95118.44
2023-05-16T18:18:27.246Z,95116.84
2023-05-16T18:21:30.328Z,95114.66
2023-05-16T18:24:35.169Z,95117.38
2023-05-16T18:27:38.929Z,95119.00
2023-05-16T18:30:42.322Z,95114.34
2023-05-16T18:33:46.460Z,95115.97
2023-05-16T18:36:49.170Z,95118.97
2023-05-16T18:39:51.745Z,95113.91
2023-05-16T18:42:55.896Z,95121.28
2023-05-16T18:45:59.219Z,95116.28
2023-05-16T18:49:03.534Z,95120.59
2023-05-16T18:52:07.023Z,95119.38
2023-05-16T18:55:10.288Z,95125.59
2023-05-16T18:58:12.937Z,95124.06
2023-05-16T19:01:15.685Z,95129.44
2023-05-16T19:04:20.227Z,95136.03
2023-05-16T19:07:22.916Z,95140.69
2023-05-16T19:10:25.792Z,95144.94
2023-05-16T19:13:28.902Z,95146.88
2023-05-16T19:16:31.920Z,95150.44
2023-05-16T19:19:39.379Z,95144.28
2023-05-16T19:22:42.045Z,95137.72
2023-05-16T19:25:47.856Z,95136.53
2023-05-16T19:28:53.228Z,95134.53
2023-05-16T19:31:58.884Z,95134.16
2023-05-16T19:35:05.753Z,95137.25
2023-05-16T19:38:08.375Z,95138.00
2023-05-16T19:41:10.931Z,95130.28
2023-05-16T19:44:14.534Z,95137.66
2023-05-16T19:47:17.014Z,95141.59
2023-05-16T19:50:21.905Z,95142.31
2023-05-16T19:53:24.411Z,95148.47
2023-05-16T19:56:26.925Z,95137.72
2023-05-16T19:59:30.680Z,95140.44
2023-05-16T20:02:33.134Z,95141.56
2023-05-16T20:05:36.883Z,95147.38
2023-05-16T20:08:39.328Z,95145.84
2023-05-16T20:11:42.028Z,95141.97
2023-05-16T20:14:44.524Z,95148.16
2023-05-16T20:17:47.123Z,95143.13
2023-05-16T20:20:52.317Z,95148.09
2023-05-16T20:23:54.847Z,95158.47
2023-05-16T20:26:57.390Z,95161.91
2023-05-16T20:30:00.189Z,95160.06
2023-05-16T20:33:03.381Z,95163.53
2023-05-16T20:36:07.656Z,95167.78
2023-05-16T20:39:10.474Z,95159.78
2023-05-16T20:42:13.271Z,95163.28
2023-05-16T20:45:15.779Z,95158.66
2023-05-16T20:48:18.245Z,95166.75
2023-05-16T20:51:22.268Z,95170.59
2023-05-16T20:54:26.505Z,95167.94
2023-05-16T20:57:29.524Z,95177.56
2023-05-16T21:00:31.418Z,95176.81
2023-05-16T21:03:33.288Z,95179.13
2023-05-16T21:06:36.955Z,95186.03
2023-05-16T21:09:40.853Z,95191.09
2023-05-16T21:12:43.943Z,95198.00
2023-05-16T21:15:45.872Z,95216.13
2023-05-16T21:18:53.360Z,95216.53
2023-05-16T21:21:58.918Z,95219.22
2023-05-16T21:25:00.713Z,95220.41
2023-05-16T21:28:02.806Z,95228.09
2023-05-16T21:31:04.864Z,95227.31
2023-05-16T21:34:06.618Z,95221.16
2023-05-16T21:37:11.811Z,95232.75
2023-05-16T21:40:14.142Z,95234.25
2023-05-16T21:43:15.955Z,95244.69
2023-05-16T21:46:17.981Z,95245.44
2023-05-16T21:49:19.942Z,95248.91
2023-05-16T21:52:23.108Z,95249.69
2023-05-16T21:55:27.271Z,95254.69
2023-05-16T21:58:29.373Z,95255.44
2023-05-16T22:01:31.176Z,95254.28
2023-05-16T22:04:33.170Z,95258.09
2023-05-16T22:07:36.965Z,95258.47
2023-05-16T22:10:40.357Z,95252.66
2023-05-16T22:13:42.235Z,95245.34
2023-05-16T22:16:44.257Z,95255.78
2023-05-16T22:19:47.885Z,95255.38
2023-05-16T22:22:51.629Z,95267.69
2023-05-16T22:25:53.402Z,95268.09
2023-05-16T22:28:55.247Z,95271.13
2023-05-16T22:31:57.192Z,95280.38
2023-05-16T22:34:59.030Z,95269.59
2023-05-16T22:38:02.401Z,95278.00
2023-05-16T22:41:04.760Z,95277.59
2023-05-16T22:44:06.735Z,95279.53
2023-05-16T22:47:08.527Z,95279.94
2023-05-16T22:50:10.855Z,95282.31
2023-05-16T22:53:14.509Z,95288.47
2023-05-16T22:56:16.491Z,95293.91
2023-05-16T22:59:18.186Z,95295.03
2023-05-16T23:02:20.153Z,95300.78
2023-05-16T23:05:21.849Z,95304.25
2023-05-16T23:08:25.543Z,95299.25
2023-05-16T23:11:27.291Z,95306.81
2023-05-16T23:14:29.265Z,95300.66
2023-05-16T23:17:31.026Z,95303.75
2023-05-16T23:20:33.010Z,95312.63
2023-05-16T23:23:36.538Z,95320.28
2023-05-16T23:26:40.896Z,95324.47
2023-05-16T23:29:42.648Z,95332.16
2023-05-16T23:32:44.696Z,95328.44
2023-05-16T23:35:46.632Z,95333.34
2023-05-16T23:38:49.714Z,95334.56
2023-05-16T23:41:51.591Z,95337.09
2023-05-16T23:44:53.540Z,95337.06
2023-05-16T23:47:55.337Z,95338.72
2023-05-16T23:50:57.088Z,95343.34
2023-05-16T23:54:00.766Z,95347.94
2023-05-16T23:57:02.785Z,95349.88
